Impacts TAF Board INFO
FOR SITUATIONAL AWARENESS. NOT TO BE USED FOR FLIGHT PLANNING PURPOSES.
IDs:

KMSP - Minneapolis-St Paul, MN, US

Issued at 0657 UTC 18 Nov 2017
Updated at 0832 UTC 18 Nov 2017
Potential Impact None Slight Moderate High
Time<<19/09Z 19/10Z 19/11Z 19/12Z 19/13Z 19/14Z 19/15Z 19/16Z 19/17Z 19/18Z 19/19Z 19/20Z 19/21Z
Type PRVL PRVL PRVL
VIS >6 >6 >6
CIG -- -- --
Cover SKC SKC FEW
FltCat VFR VFR VFR
WX -- -- --
WDir 310 310 290
WSpd 12 12 5
WGst -- -- --

Raw TAF
KMSP 180657Z 1807/1912 35008KT 6SM BR SCT010 OVC110
  TEMPO 1807/1809 5SM BR BKN009
  FM181400 33008KT P6SM SCT015
  FM181700 32014G26KT P6SM FEW070
  FM190500 31012KT P6SM SKC
  FM191100 29005KT P6SM FEW250


METAR Board
Radar Display
Forecast Discussion

FOR SITUATIONAL AWARENESS. NOT TO BE USED FOR FLIGHT PLANNING PURPOSES.